Time;durP1;ratioP1;P1;durP2;ratioP2;P2;SDS_P1;SDS_P2;PMS_P1;PMS_P2;Temp;Humidity;BMP_temperature;BMP_pressure;BME280_temperature;BME280_humidity;BME280_pressure;Samples;Min_cycle;Max_cycle;Signal;HPM_P1;HPM_P2
2023/04/12 00:01:45;;;;;;;5.07;1.30;;;25.70;99.90;;;;;;5099384;28;20565;-70
2023/04/12 00:04:14;;;;;;;6.00;1.30;;;26.30;99.90;;;;;;5099200;28;20190;-71
2023/04/12 00:06:47;;;;;;;4.47;1.53;;;25.70;99.90;;;;;;5106175;28;20227;-72
2023/04/12 00:09:15;;;;;;;3.67;1.47;;;25.10;99.90;;;;;;5094597;28;20220;-72
2023/04/12 00:11:43;;;;;;;3.53;1.33;;;23.80;99.90;;;;;;5094561;28;20179;-72
2023/04/12 00:14:11;;;;;;;3.23;1.53;;;23.10;99.90;;;;;;5094225;28;20262;-70
2023/04/12 00:16:39;;;;;;;4.00;1.40;;;22.60;99.90;;;;;;5094341;28;20225;-72
2023/04/12 00:19:07;;;;;;;4.73;1.30;;;22.30;99.90;;;;;;5094414;28;20231;-72
2023/04/12 00:21:35;;;;;;;4.90;1.50;;;22.40;99.90;;;;;;5094075;28;20174;-72
2023/04/12 00:24:03;;;;;;;6.00;1.80;;;22.60;99.90;;;;;;5094161;28;20175;-71
2023/04/12 00:26:31;;;;;;;8.57;1.70;;;22.70;99.90;;;;;;5094219;28;20179;-70
2023/04/12 00:28:58;;;;;;;11.37;1.43;;;22.90;99.90;;;;;;5093781;28;20620;-71
2023/04/12 00:31:26;;;;;;;5.60;1.33;;;22.80;99.90;;;;;;5095064;28;20546;-71
2023/04/12 00:33:54;;;;;;;3.17;1.33;;;22.10;99.90;;;;;;5097914;28;20213;-72
2023/04/12 00:36:22;;;;;;;4.80;1.90;;;22.00;99.90;;;;;;5106414;28;20687;-71
2023/04/12 00:38:50;;;;;;;2.90;1.57;;;21.80;99.90;;;;;;5103461;28;20269;-72
2023/04/12 00:41:18;;;;;;;8.07;1.40;;;21.80;99.90;;;;;;5102461;28;20176;-72
2023/04/12 00:43:46;;;;;;;8.37;1.60;;;21.70;99.90;;;;;;5097856;28;20186;-72
2023/04/12 00:46:16;;;;;;;7.47;1.57;;;21.80;99.90;;;;;;5093828;28;20216;-73
2023/04/12 00:48:46;;;;;;;7.43;1.60;;;21.90;99.90;;;;;;5093944;28;20536;-72
2023/04/12 00:51:16;;;;;;;7.67;2.00;;;22.00;99.90;;;;;;5093253;28;20199;-72
2023/04/12 00:53:45;;;;;;;6.43;1.20;;;22.10;99.90;;;;;;5106930;28;20565;-72
2023/04/12 00:56:13;;;;;;;6.93;1.77;;;22.30;99.90;;;;;;5113794;28;20263;-72
2023/04/12 00:58:40;;;;;;;3.43;1.30;;;23.10;99.90;;;;;;5113701;28;20575;-72
2023/04/12 01:01:09;;;;;;;8.33;1.30;;;23.30;99.90;;;;;;5104115;28;20556;-73
2023/04/12 01:03:41;;;;;;;4.83;1.03;;;23.80;99.90;;;;;;5093262;28;20183;-72
2023/04/12 01:06:34;;;;;;;6.07;1.20;;;24.40;99.90;;;;;;5092993;28;20187;-70
2023/04/12 01:09:19;;;;;;;3.30;1.27;;;25.00;99.90;;;;;;5097434;28;20292;-72
2023/04/12 01:12:09;;;;;;;6.40;1.33;;;24.60;99.90;;;;;;5113590;28;20767;-73
2023/04/12 01:14:43;;;;;;;5.03;1.33;;;23.70;99.90;;;;;;5113501;28;20178;-72
2023/04/12 01:17:19;;;;;;;5.93;1.17;;;22.80;99.90;;;;;;5113512;28;20258;-72
2023/04/12 01:19:56;;;;;;;3.57;1.00;;;22.30;99.90;;;;;;5113301;28;20193;-71
2023/04/12 01:22:55;;;;;;;8.03;1.70;;;21.80;99.90;;;;;;5113275;28;20198;-71
2023/04/12 01:25:39;;;;;;;5.17;1.63;;;21.80;99.90;;;;;;5113431;28;20668;-71
2023/04/12 01:28:09;;;;;;;3.90;1.23;;;21.70;99.90;;;;;;5112783;28;20269;-71
2023/04/12 01:30:38;;;;;;;7.00;1.20;;;22.60;99.90;;;;;;5113019;28;20189;-72
2023/04/12 01:33:09;;;;;;;4.23;1.20;;;23.60;99.90;;;;;;5112734;28;20247;-72
2023/04/12 01:35:39;;;;;;;3.90;1.43;;;23.60;99.90;;;;;;5112909;28;20599;-72
2023/04/12 01:38:07;;;;;;;3.80;1.37;;;22.80;99.90;;;;;;5113234;28;20181;-71
2023/04/12 01:40:36;;;;;;;2.13;1.20;;;22.40;99.90;;;;;;5113200;28;20667;-72
2023/04/12 01:43:09;;;;;;;5.70;1.20;;;22.00;99.90;;;;;;5112282;28;20596;-72
2023/04/12 01:45:37;;;;;;;4.63;1.37;;;21.90;99.90;;;;;;5113188;28;20202;-71
2023/04/12 01:48:07;;;;;;;5.17;1.50;;;21.90;99.90;;;;;;5112588;28;20173;-71
2023/04/12 01:50:41;;;;;;;8.97;1.37;;;21.90;99.90;;;;;;5111871;28;20696;-71
2023/04/12 01:53:18;;;;;;;4.93;1.10;;;22.00;99.90;;;;;;5110946;28;20181;-70
2023/04/12 01:55:48;;;;;;;4.77;1.20;;;22.30;99.90;;;;;;5116586;28;20241;-71
2023/04/12 01:58:20;;;;;;;1.63;1.10;;;22.30;99.90;;;;;;5092096;28;20179;-72
2023/04/12 02:00:50;;;;;;;8.47;1.30;;;22.30;99.90;;;;;;5092365;28;20206;-72
2023/04/12 02:03:20;;;;;;;3.77;1.23;;;22.20;99.90;;;;;;5092217;28;20183;-73
2023/04/12 02:05:49;;;;;;;6.43;1.57;;;22.30;99.90;;;;;;5093423;28;20183;-71
2023/04/12 02:08:17;;;;;;;3.97;1.33;;;22.30;99.90;;;;;;5092391;28;20199;-72
2023/04/12 02:10:44;;;;;;;1.67;1.20;;;22.40;99.90;;;;;;5092338;28;20539;-71
2023/04/12 02:13:12;;;;;;;1.93;1.20;;;22.50;99.90;;;;;;5091748;28;20171;-72
2023/04/12 02:15:40;;;;;;;2.07;1.00;;;22.80;99.90;;;;;;5092148;28;20579;-72
2023/04/12 02:18:08;;;;;;;4.83;1.30;;;23.10;99.90;;;;;;5091884;28;20242;-72
2023/04/12 02:20:36;;;;;;;5.37;1.50;;;23.20;99.90;;;;;;5091859;28;20236;-71
2023/04/12 02:23:04;;;;;;;6.33;1.60;;;23.00;99.90;;;;;;5091800;28;20179;-70
2023/04/12 02:25:32;;;;;;;6.17;2.13;;;22.90;99.90;;;;;;5092059;28;20265;-72
2023/04/12 02:28:00;;;;;;;2.90;1.50;;;22.80;99.90;;;;;;5091433;28;20163;-72
2023/04/12 02:30:27;;;;;;;2.90;1.27;;;22.70;99.90;;;;;;5090851;28;20179;-73
2023/04/12 02:32:56;;;;;;;5.83;1.70;;;22.70;99.90;;;;;;5092022;28;20241;-73
2023/04/12 02:35:24;;;;;;;3.00;1.40;;;22.90;99.90;;;;;;5090274;28;20689;-72
2023/04/12 02:37:53;;;;;;;3.40;1.40;;;22.90;99.90;;;;;;5091915;28;20173;-72
2023/04/12 02:40:21;;;;;;;5.20;1.80;;;22.70;99.90;;;;;;5091879;28;20187;-73
2023/04/12 02:42:49;;;;;;;3.33;1.50;;;22.70;99.90;;;;;;5091381;28;20199;-72
2023/04/12 02:45:17;;;;;;;7.70;1.50;;;22.50;99.90;;;;;;5091792;28;20585;-71
2023/04/12 02:47:44;;;;;;;3.87;1.60;;;22.50;99.90;;;;;;5091882;28;20175;-73
2023/04/12 02:50:12;;;;;;;5.77;1.63;;;22.70;99.90;;;;;;5091336;28;20797;-72
2023/04/12 02:52:40;;;;;;;2.40;1.30;;;22.90;99.90;;;;;;5092330;28;20265;-71
2023/04/12 02:55:09;;;;;;;1.87;1.10;;;23.00;99.90;;;;;;5092513;28;20563;-72
2023/04/12 02:57:36;;;;;;;3.53;1.10;;;22.70;99.90;;;;;;5091364;28;20634;-73
2023/04/12 03:00:11;;;;;;;3.47;1.20;;;22.70;99.90;;;;;;5094535;28;20178;-72
2023/04/12 03:02:39;;;;;;;1.47;0.97;;;22.40;99.90;;;;;;5105240;28;20694;-72
2023/04/12 03:05:07;;;;;;;3.83;1.40;;;22.30;99.90;;;;;;5115448;28;20257;-72
2023/04/12 03:07:35;;;;;;;4.70;1.10;;;22.20;99.90;;;;;;5115926;28;20178;-72
2023/04/12 03:10:07;;;;;;;3.63;1.40;;;22.20;99.90;;;;;;5116161;28;20651;-71
2023/04/12 03:12:34;;;;;;;3.10;1.20;;;22.00;99.90;;;;;;5115759;28;20170;-72
2023/04/12 03:15:02;;;;;;;2.27;0.90;;;21.90;99.90;;;;;;5115837;28;20198;-71
2023/04/12 03:17:30;;;;;;;2.87;1.13;;;21.90;99.90;;;;;;5110685;28;20230;-72
2023/04/12 03:20:09;;;;;;;4.17;0.93;;;21.80;99.90;;;;;;5114308;28;20661;-71
2023/04/12 03:22:37;;;;;;;3.00;1.10;;;21.70;99.90;;;;;;5103729;28;20174;-72
2023/04/12 03:25:08;;;;;;;1.73;1.10;;;21.80;99.90;;;;;;5095132;28;20179;-72
2023/04/12 03:27:36;;;;;;;1.23;0.97;;;21.90;99.90;;;;;;5096713;28;20194;-72
2023/04/12 03:30:05;;;;;;;3.17;1.03;;;21.90;99.90;;;;;;5115781;28;20178;-72
2023/04/12 03:32:33;;;;;;;8.33;2.90;;;21.80;99.90;;;;;;5113895;28;20174;-71
2023/04/12 03:35:00;;;;;;;5.97;2.67;;;21.70;99.90;;;;;;5115546;27;20202;-71
2023/04/12 03:37:28;;;;;;;3.90;1.33;;;21.60;99.90;;;;;;5115504;27;20659;-71
2023/04/12 03:39:56;;;;;;;3.33;1.40;;;21.60;99.90;;;;;;5094794;28;20256;-70
2023/04/12 03:42:24;;;;;;;6.00;2.13;;;21.60;99.90;;;;;;5095021;28;20178;-72
2023/04/12 03:44:52;;;;;;;2.77;1.47;;;21.50;99.90;;;;;;5095149;28;20311;-72
2023/04/12 03:47:20;;;;;;;1.40;1.20;;;21.50;99.90;;;;;;5094701;28;20191;-72
2023/04/12 03:49:48;;;;;;;3.37;1.57;;;21.50;99.90;;;;;;5094829;28;20673;-72
2023/04/12 03:52:16;;;;;;;10.63;1.97;;;21.60;99.90;;;;;;5106872;28;20258;-73
2023/04/12 03:54:43;;;;;;;1.77;1.13;;;21.60;99.90;;;;;;5094574;28;20199;-72
2023/04/12 03:57:11;;;;;;;3.33;1.60;;;21.60;99.90;;;;;;5094979;28;20183;-72
2023/04/12 03:59:39;;;;;;;5.50;1.60;;;21.70;99.90;;;;;;5106454;28;20531;-71
2023/04/12 04:02:07;;;;;;;3.30;1.30;;;21.90;99.90;;;;;;5094324;28;20167;-72
2023/04/12 04:04:36;;;;;;;2.63;1.37;;;21.90;99.90;;;;;;5094792;28;20255;-72
2023/04/12 04:07:05;;;;;;;3.07;1.40;;;21.80;99.90;;;;;;5094666;28;20184;-73
2023/04/12 04:09:33;;;;;;;2.57;1.17;;;21.60;99.90;;;;;;5093733;28;20176;-70
2023/04/12 04:12:01;;;;;;;5.00;1.20;;;21.60;99.90;;;;;;5094379;28;20255;-69
2023/04/12 04:14:29;;;;;;;4.13;1.57;;;21.60;99.90;;;;;;5094567;28;20183;-73
2023/04/12 04:16:57;;;;;;;3.73;1.60;;;21.50;99.90;;;;;;5093946;28;20227;-72
2023/04/12 04:19:24;;;;;;;7.53;1.77;;;21.60;99.90;;;;;;5094258;28;20235;-73
2023/04/12 04:21:55;;;;;;;6.53;2.03;;;21.60;99.90;;;;;;5094465;28;20175;-73
2023/04/12 04:24:23;;;;;;;2.77;1.40;;;21.60;99.90;;;;;;5093569;28;20252;-72
2023/04/12 04:26:53;;;;;;;4.60;1.40;;;21.50;99.90;;;;;;5097273;28;20329;-71
2023/04/12 04:29:21;;;;;;;5.47;1.73;;;21.40;99.90;;;;;;5109312;28;20199;-73
2023/04/12 04:31:48;;;;;;;5.17;1.50;;;21.20;99.90;;;;;;5093879;28;20182;-71
2023/04/12 04:34:17;;;;;;;11.60;2.10;;;21.20;99.90;;;;;;5094020;28;20273;-73
2023/04/12 04:36:45;;;;;;;6.00;1.60;;;21.20;99.90;;;;;;5094056;28;20207;-71
2023/04/12 04:39:13;;;;;;;3.90;1.67;;;21.30;99.90;;;;;;5093658;28;20171;-72
2023/04/12 04:41:41;;;;;;;5.53;1.97;;;21.40;99.90;;;;;;5094034;28;20269;-72
2023/04/12 04:44:09;;;;;;;3.63;1.30;;;21.60;99.90;;;;;;5093841;28;20168;-73
2023/04/12 04:46:38;;;;;;;3.03;1.40;;;21.50;99.90;;;;;;5093465;28;20175;-70
2023/04/12 04:49:06;;;;;;;6.40;1.60;;;21.70;99.90;;;;;;5093932;28;20205;-71
2023/04/12 04:51:35;;;;;;;3.43;1.40;;;21.80;99.90;;;;;;5093752;28;20214;-72
2023/04/12 04:54:04;;;;;;;4.80;1.23;;;22.40;99.90;;;;;;5093253;28;20191;-72
2023/04/12 04:56:32;;;;;;;1.60;1.20;;;23.00;99.90;;;;;;5094702;28;20223;-72
2023/04/12 04:59:01;;;;;;;3.73;1.30;;;23.10;99.90;;;;;;5093780;28;20273;-73
2023/04/12 05:01:28;;;;;;;2.30;1.20;;;23.30;99.90;;;;;;5093372;28;20202;-70
2023/04/12 05:03:56;;;;;;;1.70;0.90;;;23.40;99.90;;;;;;5093408;28;20171;-72
2023/04/12 05:06:24;;;;;;;1.90;1.17;;;23.40;99.90;;;;;;5093385;28;20179;-72
2023/04/12 05:08:52;;;;;;;2.13;1.20;;;23.30;99.90;;;;;;5113093;28;20613;-72
2023/04/12 05:11:20;;;;;;;7.03;1.20;;;23.30;99.90;;;;;;5113977;28;20175;-72
2023/04/12 05:13:48;;;;;;;4.00;1.50;;;23.30;99.90;;;;;;5113585;28;20182;-72
2023/04/12 05:16:15;;;;;;;4.13;1.00;;;23.00;99.90;;;;;;5112944;28;20198;-72
2023/04/12 05:18:43;;;;;;;3.53;1.53;;;22.90;99.90;;;;;;5113450;28;20226;-72
2023/04/12 05:21:11;;;;;;;1.83;1.10;;;22.90;99.90;;;;;;5105913;28;20194;-71
2023/04/12 05:23:44;;;;;;;2.83;1.40;;;22.90;99.90;;;;;;5100352;28;20642;-70
2023/04/12 05:26:12;;;;;;;3.23;1.00;;;22.80;99.90;;;;;;5095900;28;20187;-71
2023/04/12 05:28:40;;;;;;;1.23;1.00;;;22.80;99.90;;;;;;5095403;28;20646;-72
2023/04/12 05:31:08;;;;;;;4.57;1.53;;;22.80;99.90;;;;;;5094467;28;20196;-73
2023/04/12 05:33:36;;;;;;;3.23;1.20;;;22.60;99.90;;;;;;5110240;28;20188;-72
2023/04/12 05:36:04;;;;;;;4.30;1.17;;;22.60;99.90;;;;;;5114426;27;20222;-72
2023/04/12 05:38:32;;;;;;;3.27;1.20;;;22.50;99.90;;;;;;5096826;28;20186;-71
2023/04/12 05:41:04;;;;;;;5.47;1.63;;;22.60;99.90;;;;;;5106397;28;20179;-73
2023/04/12 05:43:32;;;;;;;3.20;1.20;;;22.80;99.90;;;;;;5105838;28;20259;-71
2023/04/12 05:46:00;;;;;;;5.33;1.30;;;23.00;99.90;;;;;;5102730;28;20664;-72
2023/04/12 05:48:28;;;;;;;1.23;0.90;;;23.00;99.90;;;;;;5113925;28;20196;-71
2023/04/12 05:50:55;;;;;;;5.30;1.47;;;22.90;99.90;;;;;;5113899;28;20657;-72
2023/04/12 05:53:23;;;;;;;2.00;1.33;;;22.90;99.90;;;;;;5098323;28;20203;-72
2023/04/12 05:55:53;;;;;;;2.10;1.37;;;22.90;99.90;;;;;;5093947;28;20199;-72
2023/04/12 05:58:20;;;;;;;3.13;1.20;;;22.90;99.90;;;;;;5093612;28;20658;-72
2023/04/12 06:00:48;;;;;;;2.23;1.50;;;22.70;99.90;;;;;;5093727;28;20221;-72
2023/04/12 06:03:16;;;;;;;2.20;1.40;;;22.60;99.90;;;;;;5093523;28;20198;-72
2023/04/12 06:05:44;;;;;;;3.37;1.63;;;22.70;99.90;;;;;;5093605;28;20254;-72
2023/04/12 06:08:13;;;;;;;1.97;1.50;;;22.40;99.90;;;;;;5102144;28;20192;-70
2023/04/12 06:10:41;;;;;;;4.90;2.00;;;22.60;99.90;;;;;;5113946;28;20330;-70
2023/04/12 06:13:09;;;;;;;6.97;2.27;;;22.70;99.90;;;;;;5113827;28;20202;-70
2023/04/12 06:15:37;;;;;;;4.27;1.97;;;22.30;99.90;;;;;;5114142;28;20218;-69
2023/04/12 06:18:06;;;;;;;3.63;1.50;;;22.10;99.90;;;;;;5113533;28;20573;-69
2023/04/12 06:20:34;;;;;;;3.33;1.50;;;22.00;99.90;;;;;;5113668;28;20675;-69
2023/04/12 06:23:02;;;;;;;3.53;1.83;;;21.80;99.90;;;;;;5114049;28;20598;-70
2023/04/12 06:25:29;;;;;;;3.73;1.87;;;21.90;99.90;;;;;;5113582;28;20275;-70
2023/04/12 06:27:57;;;;;;;6.53;1.97;;;21.80;99.90;;;;;;5113613;28;20257;-70
2023/04/12 06:30:25;;;;;;;6.13;1.90;;;21.40;99.90;;;;;;5113668;28;20171;-69
2023/04/12 06:32:53;;;;;;;3.03;1.60;;;21.20;99.90;;;;;;5113482;28;20530;-70
2023/04/12 06:35:21;;;;;;;5.80;2.07;;;21.30;99.90;;;;;;5113363;28;20200;-69
2023/04/12 06:37:49;;;;;;;4.23;1.80;;;21.30;99.90;;;;;;5113669;28;20185;-70
2023/04/12 06:40:17;;;;;;;9.97;1.93;;;21.30;99.90;;;;;;5113393;28;20202;-70
2023/04/12 06:42:45;;;;;;;4.53;1.47;;;21.40;99.90;;;;;;5111955;28;20182;-70
2023/04/12 06:45:13;;;;;;;6.67;1.53;;;21.20;99.90;;;;;;5113376;28;20171;-70
2023/04/12 06:47:41;;;;;;;4.53;1.60;;;21.10;99.90;;;;;;5113353;28;20174;-70
2023/04/12 06:50:09;;;;;;;4.10;1.87;;;21.10;99.90;;;;;;5113561;28;20563;-70
2023/04/12 06:52:37;;;;;;;2.73;1.60;;;21.10;99.90;;;;;;5113268;28;20184;-70
2023/04/12 06:55:06;;;;;;;2.77;1.40;;;21.20;99.90;;;;;;5113179;28;20178;-69
2023/04/12 06:57:33;;;;;;;4.83;1.90;;;21.10;99.90;;;;;;5113402;28;20177;-69
2023/04/12 07:00:02;;;;;;;12.00;1.63;;;21.00;99.90;;;;;;5113104;28;20303;-70
2023/04/12 07:02:30;;;;;;;4.27;1.70;;;20.90;99.90;;;;;;5113088;28;20281;-70
2023/04/12 07:04:57;;;;;;;4.83;1.63;;;20.70;99.90;;;;;;5113126;28;20610;-70
2023/04/12 07:07:25;;;;;;;3.37;1.50;;;20.60;99.90;;;;;;5113193;28;20237;-70
2023/04/12 07:09:53;;;;;;;9.93;2.03;;;20.50;99.90;;;;;;5113068;28;20655;-70
2023/04/12 07:12:21;;;;;;;5.93;2.03;;;20.50;99.90;;;;;;5113171;28;20185;-70
2023/04/12 07:14:49;;;;;;;7.33;1.77;;;20.50;99.90;;;;;;5113451;28;20234;-70
2023/04/12 07:17:17;;;;;;;4.90;2.23;;;20.40;99.90;;;;;;5112895;28;20190;-69
2023/04/12 07:19:45;;;;;;;13.80;2.40;;;20.50;99.90;;;;;;5113373;28;20182;-69
2023/04/12 07:22:13;;;;;;;4.57;1.77;;;20.50;99.90;;;;;;5112643;28;20704;-69
2023/04/12 07:24:41;;;;;;;9.73;2.20;;;20.20;99.90;;;;;;5112868;28;20421;-68
2023/04/12 07:27:09;;;;;;;8.43;2.27;;;20.10;99.90;;;;;;5112880;28;20239;-70
2023/04/12 07:29:37;;;;;;;4.67;1.60;;;20.00;99.90;;;;;;5112907;28;20167;-70
2023/04/12 07:32:05;;;;;;;3.73;1.80;;;19.90;99.90;;;;;;5112736;28;20173;-69
2023/04/12 07:34:33;;;;;;;3.77;1.70;;;19.70;99.90;;;;;;5112702;28;20188;-70
2023/04/12 07:37:01;;;;;;;7.53;2.03;;;19.40;99.90;;;;;;5112550;28;20576;-70
2023/04/12 07:39:30;;;;;;;9.97;1.90;;;19.10;99.90;;;;;;5112781;28;20179;-70
2023/04/12 07:41:58;;;;;;;6.27;1.63;;;18.90;99.90;;;;;;5112387;28;20190;-69
2023/04/12 07:44:26;;;;;;;4.17;2.00;;;18.70;99.90;;;;;;5112790;28;20209;-70
2023/04/12 07:46:53;;;;;;;5.97;1.80;;;18.50;99.90;;;;;;5116490;28;20312;-69
2023/04/12 07:49:21;;;;;;;4.47;1.80;;;18.30;99.90;;;;;;5116516;28;20189;-70
2023/04/12 07:51:49;;;;;;;5.40;2.40;;;18.30;99.90;;;;;;5116486;28;20174;-69
2023/04/12 07:54:17;;;;;;;12.63;1.90;;;18.50;99.90;;;;;;5116310;28;20177;-71
2023/04/12 07:56:58;;;;;;;5.83;1.93;;;18.60;99.90;;;;;;5116472;28;20217;-69
2023/04/12 07:59:26;;;;;;;3.57;1.40;;;18.50;99.90;;;;;;5116322;28;20689;-69
2023/04/12 08:01:54;;;;;;;2.70;1.47;;;18.30;99.90;;;;;;5116366;28;20181;-70
2023/04/12 08:04:21;;;;;;;3.63;1.87;;;18.00;99.90;;;;;;5116286;28;20185;-69
2023/04/12 08:06:49;;;;;;;4.27;1.50;;;17.80;99.90;;;;;;5116540;28;20245;-70
2023/04/12 08:09:17;;;;;;;2.67;1.40;;;17.60;99.90;;;;;;5116446;28;20629;-69
2023/04/12 08:11:46;;;;;;;7.43;1.97;;;17.50;99.90;;;;;;5116212;28;20170;-68
2023/04/12 08:14:14;;;;;;;3.90;1.40;;;17.40;99.90;;;;;;5116168;28;20271;-69
2023/04/12 08:16:41;;;;;;;5.30;1.50;;;17.30;99.90;;;;;;5115950;28;20218;-69
2023/04/12 08:19:09;;;;;;;4.73;1.70;;;17.20;99.90;;;;;;5116100;28;20575;-70
2023/04/12 08:21:37;;;;;;;4.37;1.80;;;17.20;99.90;;;;;;5116065;27;20261;-69
2023/04/12 08:24:05;;;;;;;3.90;1.80;;;17.10;99.90;;;;;;5115851;28;20217;-68
2023/04/12 08:26:33;;;;;;;4.60;1.50;;;17.10;99.90;;;;;;5115929;28;20176;-69
2023/04/12 08:29:00;;;;;;;4.53;1.53;;;17.00;99.90;;;;;;5116427;28;20267;-69
2023/04/12 08:31:28;;;;;;;3.47;1.70;;;16.90;99.90;;;;;;5116271;28;20587;-70
2023/04/12 08:33:58;;;;;;;3.77;1.87;;;16.90;99.90;;;;;;5115807;28;20174;-69
2023/04/12 08:36:26;;;;;;;4.17;1.60;;;16.80;99.90;;;;;;5116041;28;20195;-70
2023/04/12 08:38:57;;;;;;;7.33;2.27;;;16.70;99.90;;;;;;5115707;28;20174;-69
2023/04/12 08:41:26;;;;;;;5.80;1.83;;;16.60;99.90;;;;;;5115780;27;20178;-69
2023/04/12 08:43:57;;;;;;;5.73;2.50;;;16.60;99.90;;;;;;5115423;28;20186;-70
2023/04/12 08:46:26;;;;;;;3.47;1.97;;;16.50;99.90;;;;;;5115801;28;20266;-70
2023/04/12 08:48:56;;;;;;;4.20;2.07;;;16.50;99.90;;;;;;5115659;28;20168;-70
2023/04/12 08:51:24;;;;;;;5.17;2.33;;;16.50;99.90;;;;;;5114119;28;20182;-70
2023/04/12 08:53:52;;;;;;;6.13;2.50;;;16.40;99.90;;;;;;5114028;28;20543;-70
2023/04/12 08:56:22;;;;;;;6.17;2.70;;;16.40;99.90;;;;;;5115418;28;20578;-71
2023/04/12 08:58:52;;;;;;;6.67;3.40;;;16.40;99.90;;;;;;5115497;28;20194;-69
2023/04/12 09:01:21;;;;;;;7.17;2.37;;;16.40;99.90;;;;;;5115409;28;20178;-71
2023/04/12 09:03:48;;;;;;;3.93;2.90;;;16.40;99.90;;;;;;5115065;28;20186;-69
2023/04/12 09:06:16;;;;;;;4.00;2.90;;;16.30;99.90;;;;;;5115177;28;20181;-71
2023/04/12 09:08:55;;;;;;;6.87;3.20;;;16.30;99.90;;;;;;5115700;28;20545;-70
2023/04/12 09:11:29;;;;;;;7.33;3.27;;;16.40;99.90;;;;;;5115418;28;20616;-70
2023/04/12 09:13:58;;;;;;;7.37;3.30;;;16.40;99.90;;;;;;5115026;28;20182;-69
2023/04/12 09:16:41;;;;;;;8.40;3.10;;;16.40;99.90;;;;;;5114938;28;20218;-69
2023/04/12 09:19:10;;;;;;;8.57;3.00;;;16.40;99.90;;;;;;5114754;28;20300;-71
2023/04/12 09:21:50;;;;;;;5.73;2.80;;;16.40;99.90;;;;;;5114828;28;20175;-70
2023/04/12 09:24:22;;;;;;;10.20;3.07;;;16.40;99.90;;;;;;5115117;28;20183;-70
2023/04/12 09:27:04;;;;;;;4.93;3.00;;;16.50;99.90;;;;;;5114778;28;20187;-69
2023/04/12 09:29:33;;;;;;;10.47;3.20;;;16.50;99.90;;;;;;5114785;28;20267;-70
2023/04/12 09:32:03;;;;;;;5.30;3.00;;;16.60;99.90;;;;;;5114824;28;20332;-70
2023/04/12 09:34:35;;;;;;;6.00;2.73;;;16.60;99.90;;;;;;5114677;28;20178;-69
2023/04/12 09:37:16;;;;;;;4.33;2.57;;;16.70;99.90;;;;;;5114475;28;20202;-70
2023/04/12 09:39:44;;;;;;;7.83;3.37;;;16.70;99.90;;;;;;5113395;28;20629;-70
2023/04/12 09:42:15;;;;;;;19.37;10.50;;;16.70;99.90;;;;;;5113412;28;20695;-69
2023/04/12 09:44:43;;;;;;;11.67;7.97;;;16.70;99.90;;;;;;5114578;28;20633;-69
2023/04/12 09:47:11;;;;;;;8.03;4.90;;;16.70;99.90;;;;;;5114577;28;20174;-70
2023/04/12 09:49:43;;;;;;;9.37;6.70;;;16.70;99.90;;;;;;5114318;28;20833;-70
2023/04/12 09:52:13;;;;;;;8.13;4.60;;;16.80;99.90;;;;;;5114213;28;20179;-70
2023/04/12 09:54:45;;;;;;;6.23;4.30;;;16.90;99.90;;;;;;5114626;28;20272;-69
2023/04/12 09:57:26;;;;;;;8.90;4.13;;;17.00;99.90;;;;;;5114287;28;20235;-70
2023/04/12 10:00:04;;;;;;;10.43;4.00;;;17.10;99.90;;;;;;5114233;28;20181;-69
2023/04/12 10:02:33;;;;;;;6.43;3.20;;;17.20;99.90;;;;;;5113814;27;20543;-69
2023/04/12 10:05:02;;;;;;;8.90;3.60;;;17.30;99.90;;;;;;5114187;28;20197;-70
2023/04/12 10:07:30;;;;;;;4.17;2.70;;;17.50;99.90;;;;;;5113585;28;20171;-70
2023/04/12 10:09:58;;;;;;;7.07;2.60;;;17.50;99.90;;;;;;5114190;28;20195;-70
2023/04/12 10:12:35;;;;;;;7.17;2.50;;;17.50;99.90;;;;;;5114002;27;20175;-69
2023/04/12 10:15:12;;;;;;;4.37;2.40;;;17.60;99.90;;;;;;5113819;28;20175;-69
2023/04/12 10:17:45;;;;;;;4.00;2.30;;;17.60;99.90;;;;;;5113609;28;20228;-70
2023/04/12 10:20:15;;;;;;;5.33;2.40;;;17.50;99.90;;;;;;5114023;28;20199;-70
2023/04/12 10:22:47;;;;;;;5.17;2.10;;;17.40;99.90;;;;;;5113606;28;20179;-69
2023/04/12 10:25:17;;;;;;;4.13;2.30;;;17.30;99.90;;;;;;5113734;28;20231;-69
2023/04/12 10:27:45;;;;;;;5.00;2.37;;;17.40;99.90;;;;;;5113682;28;20163;-69
2023/04/12 10:30:25;;;;;;;5.17;2.23;;;17.30;99.90;;;;;;5113606;28;20198;-70
2023/04/12 10:33:15;;;;;;;5.87;2.43;;;17.30;99.90;;;;;;5112107;28;20597;-71
2023/04/12 10:35:59;;;;;;;6.10;2.70;;;17.30;99.90;;;;;;5113568;28;20207;-69
2023/04/12 10:38:31;;;;;;;5.57;2.73;;;17.30;99.90;;;;;;5113759;28;20166;-70
2023/04/12 10:41:08;;;;;;;3.33;2.20;;;17.10;99.90;;;;;;5113517;28;20163;-68
2023/04/12 10:43:35;;;;;;;7.57;2.53;;;17.00;99.90;;;;;;5113311;28;20178;-71
2023/04/12 10:46:05;;;;;;;5.87;2.27;;;16.90;99.90;;;;;;5113408;28;20215;-70
2023/04/12 10:48:38;;;;;;;6.63;3.10;;;16.90;99.90;;;;;;5113694;28;20645;-69
2023/04/12 10:51:29;;;;;;;7.23;3.30;;;16.80;99.90;;;;;;5113427;28;20250;-69
2023/04/12 10:54:17;;;;;;;4.90;2.90;;;16.80;99.90;;;;;;5113501;28;20179;-69
2023/04/12 10:56:48;;;;;;;6.37;2.67;;;16.80;99.90;;;;;;5099815;28;20318;-70
2023/04/12 10:59:15;;;;;;;4.23;2.80;;;16.80;99.90;;;;;;5112544;28;20183;-70
2023/04/12 11:02:10;;;;;;;3.93;2.50;;;16.80;99.90;;;;;;5113339;28;20174;-69
2023/04/12 11:04:38;;;;;;;6.10;3.07;;;16.70;99.90;;;;;;5112559;28;20183;-69
2023/04/12 11:07:10;;;;;;;5.20;2.77;;;16.70;99.90;;;;;;5113402;28;20167;-70
2023/04/12 11:09:41;;;;;;;8.37;2.90;;;16.70;99.90;;;;;;5113452;28;20182;-70
2023/04/12 11:12:12;;;;;;;11.27;3.10;;;16.80;99.90;;;;;;5113547;28;20173;-70
2023/04/12 11:14:50;;;;;;;15.03;3.30;;;16.90;99.90;;;;;;5113518;28;20281;-69
2023/04/12 11:17:18;;;;;;;4.23;2.47;;;16.70;99.90;;;;;;5113234;28;20572;-70
2023/04/12 11:19:51;;;;;;;4.77;2.90;;;16.60;99.90;;;;;;5113710;28;20225;-69
2023/04/12 11:22:21;;;;;;;6.07;2.70;;;16.50;99.90;;;;;;5116039;28;20665;-71
2023/04/12 11:24:54;;;;;;;6.13;2.83;;;16.50;99.90;;;;;;5116240;28;20649;-69
2023/04/12 11:27:23;;;;;;;7.53;3.10;;;16.40;99.90;;;;;;5117573;28;20182;-69
2023/04/12 11:29:56;;;;;;;4.43;2.93;;;16.40;99.90;;;;;;5117246;28;20214;-70
2023/04/12 11:32:26;;;;;;;8.33;2.90;;;16.40;99.90;;;;;;5117188;27;20637;-69
2023/04/12 11:34:55;;;;;;;5.53;3.13;;;16.30;99.90;;;;;;5115886;28;20587;-69
2023/04/12 11:37:25;;;;;;;4.77;2.80;;;16.40;99.90;;;;;;5117295;28;20190;-69
2023/04/12 11:39:56;;;;;;;8.00;2.70;;;16.40;99.90;;;;;;5117318;28;20170;-69
2023/04/12 11:42:25;;;;;;;5.07;2.97;;;16.40;99.90;;;;;;5116868;28;20178;-70
2023/04/12 11:44:53;;;;;;;6.30;2.63;;;16.40;99.90;;;;;;5117116;28;20202;-70
2023/04/12 11:47:22;;;;;;;8.00;3.40;;;16.40;99.90;;;;;;5116945;28;20177;-69
2023/04/12 11:49:55;;;;;;;5.53;2.73;;;16.50;99.90;;;;;;5115740;28;20186;-69
2023/04/12 11:52:29;;;;;;;5.80;2.73;;;16.60;99.90;;;;;;5116797;28;20187;-70
2023/04/12 11:55:07;;;;;;;4.80;2.87;;;16.60;99.90;;;;;;5116930;28;20180;-69
2023/04/12 11:57:35;;;;;;;7.23;2.90;;;16.60;99.90;;;;;;5116821;28;20225;-68
2023/04/12 12:00:05;;;;;;;4.30;2.63;;;16.70;99.90;;;;;;5116954;28;20203;-69
2023/04/12 12:02:37;;;;;;;5.90;2.57;;;16.70;99.90;;;;;;5116591;28;20180;-70
2023/04/12 12:05:06;;;;;;;5.63;2.50;;;16.70;99.90;;;;;;5116917;28;20174;-70
2023/04/12 12:07:35;;;;;;;6.43;2.60;;;16.70;99.90;;;;;;5117132;28;20227;-70
2023/04/12 12:10:03;;;;;;;3.47;2.50;;;16.70;99.90;;;;;;5116615;28;20190;-69
2023/04/12 12:12:33;;;;;;;4.47;2.60;;;16.70;99.90;;;;;;5116487;28;20213;-68
2023/04/12 12:15:02;;;;;;;4.10;2.20;;;16.70;99.90;;;;;;5116545;28;20634;-70
2023/04/12 12:17:29;;;;;;;5.27;2.50;;;16.70;99.90;;;;;;5116140;28;20218;-69
2023/04/12 12:19:58;;;;;;;4.13;2.47;;;16.70;99.90;;;;;;5116398;28;20179;-70
2023/04/12 12:22:25;;;;;;;6.23;2.77;;;16.60;99.90;;;;;;5116237;28;20178;-69
2023/04/12 12:24:57;;;;;;;5.33;2.73;;;16.60;99.90;;;;;;5116134;28;20270;-69
2023/04/12 12:27:31;;;;;;;3.40;2.40;;;16.60;99.90;;;;;;5116292;28;20227;-70
2023/04/12 12:30:01;;;;;;;3.70;2.40;;;16.50;99.90;;;;;;5107938;28;20669;-72
2023/04/12 12:32:33;;;;;;;4.33;2.20;;;16.60;99.90;;;;;;5101361;28;20180;-75
2023/04/12 12:35:01;;;;;;;3.07;2.30;;;16.60;99.90;;;;;;5106423;28;20277;-74
2023/04/12 12:37:30;;;;;;;2.97;2.03;;;16.60;99.90;;;;;;5114316;28;20178;-75
2023/04/12 12:40:15;;;;;;;3.07;2.30;;;16.60;99.90;;;;;;5115137;28;20174;-74
2023/04/12 12:42:53;;;;;;;4.27;2.43;;;16.60;99.90;;;;;;5115188;28;20255;-74
2023/04/12 12:45:23;;;;;;;4.13;2.43;;;16.60;99.90;;;;;;5114566;28;20202;-76
2023/04/12 12:47:54;;;;;;;5.47;2.67;;;16.60;99.90;;;;;;5094805;28;20181;-74
2023/04/12 12:50:32;;;;;;;4.63;2.90;;;16.60;99.90;;;;;;5094702;28;20242;-76
2023/04/12 12:53:01;;;;;;;2.93;2.20;;;16.60;99.90;;;;;;5094789;28;20534;-76
2023/04/12 12:55:30;;;;;;;4.90;2.30;;;16.60;99.90;;;;;;5094380;28;20199;-75
2023/04/12 12:57:58;;;;;;;6.37;2.20;;;16.50;99.90;;;;;;5094684;28;20183;-74
2023/04/12 13:00:28;;;;;;;4.17;2.23;;;16.50;99.90;;;;;;5094602;28;20171;-74